createdAt,value
2017-11-17T00:01:22.020Z,7.50
2017-11-17T00:03:49.581Z,7.50
2017-11-17T00:06:17.949Z,7.30
2017-11-17T00:08:45.821Z,7.30
2017-11-17T00:11:13.310Z,7.30
2017-11-17T00:13:40.835Z,7.30
2017-11-17T00:16:08.353Z,7.30
2017-11-17T00:18:35.846Z,7.20
2017-11-17T00:21:03.325Z,7.20
2017-11-17T00:23:30.825Z,7.20
2017-11-17T00:25:58.638Z,7.20
2017-11-17T00:28:26.190Z,7.30
2017-11-17T00:30:53.858Z,7.30
2017-11-17T00:33:22.118Z,7.30
2017-11-17T00:35:49.714Z,7.30
2017-11-17T00:38:17.317Z,7.30
2017-11-17T00:40:44.806Z,7.20
2017-11-17T00:43:12.474Z,7.30
2017-11-17T00:45:40.168Z,7.20
2017-11-17T00:48:07.723Z,7.30
2017-11-17T00:50:35.237Z,7.30
2017-11-17T00:53:03.268Z,7.30
2017-11-17T00:55:31.326Z,7.40
2017-11-17T00:57:59.060Z,7.40
2017-11-17T01:00:27.437Z,7.40
2017-11-17T01:02:55.105Z,7.40
2017-11-17T01:05:23.416Z,7.40
2017-11-17T01:07:51.145Z,7.40
2017-11-17T01:10:18.824Z,7.40
2017-11-17T01:12:46.326Z,7.40
2017-11-17T01:15:13.808Z,7.40
2017-11-17T01:17:42.160Z,7.50
2017-11-17T01:20:09.641Z,7.50
2017-11-17T01:22:37.351Z,7.50
2017-11-17T01:25:05.243Z,7.50
2017-11-17T01:27:32.737Z,7.50
2017-11-17T01:30:00.343Z,7.60
2017-11-17T01:32:28.019Z,7.60
2017-11-17T01:34:55.793Z,7.60
2017-11-17T01:37:23.335Z,7.60
2017-11-17T01:39:50.835Z,7.60
2017-11-17T01:42:18.401Z,7.70
2017-11-17T01:44:45.954Z,7.60
2017-11-17T01:47:13.505Z,7.60
2017-11-17T01:49:41.020Z,7.60
2017-11-17T01:52:08.737Z,7.60
2017-11-17T01:54:36.434Z,7.60
2017-11-17T01:57:05.224Z,7.60
2017-11-17T01:59:32.804Z,7.50
2017-11-17T02:02:00.307Z,7.60
2017-11-17T02:04:27.807Z,7.50
2017-11-17T02:06:58.333Z,7.50
2017-11-17T02:09:26.722Z,7.50
2017-11-17T02:11:54.194Z,7.40
2017-11-17T02:14:21.696Z,7.50
2017-11-17T02:16:49.210Z,7.50
2017-11-17T02:19:16.733Z,7.40
2017-11-17T02:21:44.322Z,7.40
2017-11-17T02:24:11.827Z,7.40
2017-11-17T02:26:39.338Z,7.50
2017-11-17T02:29:06.813Z,7.50
2017-11-17T02:31:34.313Z,7.50
2017-11-17T02:34:01.812Z,7.50
2017-11-17T02:36:29.377Z,7.50
2017-11-17T02:38:56.874Z,7.50
2017-11-17T02:41:24.371Z,7.40
2017-11-17T02:43:51.871Z,7.50
2017-11-17T02:46:19.422Z,7.50
2017-11-17T02:48:46.912Z,7.50
2017-11-17T02:51:14.636Z,7.50
2017-11-17T02:53:42.194Z,7.60
2017-11-17T02:56:09.696Z,7.60
2017-11-17T02:58:37.434Z,7.50
2017-11-17T03:01:04.954Z,7.50
2017-11-17T03:03:33.593Z,7.50
2017-11-17T03:06:01.209Z,7.50
2017-11-17T03:08:29.489Z,7.60
2017-11-17T03:10:57.048Z,7.50
2017-11-17T03:13:24.559Z,7.60
2017-11-17T03:15:52.066Z,7.50
2017-11-17T03:18:20.327Z,7.50
2017-11-17T03:20:48.646Z,7.60
2017-11-17T03:23:16.140Z,7.60
2017-11-17T03:25:43.635Z,7.60
2017-11-17T03:28:11.532Z,7.60
2017-11-17T03:30:39.048Z,7.70
2017-11-17T03:33:06.742Z,7.60
2017-11-17T03:35:34.274Z,7.60
2017-11-17T03:38:01.761Z,7.70
2017-11-17T03:40:29.438Z,7.60
2017-11-17T03:42:57.043Z,7.60
2017-11-17T03:45:24.522Z,7.70
2017-11-17T03:47:52.028Z,7.70
2017-11-17T03:50:19.507Z,7.60
2017-11-17T03:52:47.002Z,7.70
2017-11-17T03:55:14.550Z,7.60
2017-11-17T03:57:42.383Z,7.70
2017-11-17T04:00:10.224Z,7.70
2017-11-17T04:02:37.761Z,7.70
2017-11-17T04:05:05.318Z,7.70
2017-11-17T04:07:32.827Z,7.70
2017-11-17T04:10:00.322Z,7.70
2017-11-17T04:12:28.566Z,7.70
2017-11-17T04:14:56.161Z,7.70
2017-11-17T04:17:24.438Z,7.70
2017-11-17T04:19:52.736Z,7.80
2017-11-17T04:22:20.225Z,7.80
2017-11-17T04:24:47.739Z,7.90
2017-11-17T04:27:15.414Z,7.90
2017-11-17T04:29:43.061Z,7.80
2017-11-17T04:32:10.722Z,7.80
2017-11-17T04:34:38.235Z,7.80
2017-11-17T04:37:05.780Z,7.80
2017-11-17T04:39:33.441Z,7.90
2017-11-17T04:42:00.949Z,7.90
2017-11-17T04:44:28.428Z,8.00
2017-11-17T04:46:55.937Z,8.00
2017-11-17T04:49:23.474Z,8.00
2017-11-17T04:51:50.970Z,8.00
2017-11-17T04:54:18.653Z,8.00
2017-11-17T04:56:46.426Z,8.10
2017-11-17T04:59:14.682Z,8.10
2017-11-17T05:01:42.169Z,8.10
2017-11-17T05:04:10.418Z,8.20
2017-11-17T05:06:38.286Z,8.20
2017-11-17T05:09:05.771Z,8.20
2017-11-17T05:11:34.695Z,8.20
2017-11-17T05:14:02.175Z,8.20
2017-11-17T05:16:29.674Z,8.20
2017-11-17T05:18:57.934Z,8.20
2017-11-17T05:21:26.220Z,8.20
2017-11-17T05:23:54.511Z,8.20
2017-11-17T05:26:22.809Z,8.10
2017-11-17T05:28:50.330Z,8.10
2017-11-17T05:31:18.022Z,8.10
2017-11-17T05:33:45.842Z,8.00
2017-11-17T05:36:14.954Z,8.10
2017-11-17T05:38:42.457Z,8.10
2017-11-17T05:41:11.049Z,8.10
2017-11-17T05:43:38.582Z,8.10
2017-11-17T05:46:06.065Z,8.10
2017-11-17T05:48:33.571Z,8.10
2017-11-17T05:51:01.755Z,8.10
2017-11-17T05:53:29.409Z,8.00
2017-11-17T05:55:56.935Z,8.00
2017-11-17T05:58:24.751Z,8.00
2017-11-17T06:00:52.402Z,7.90
2017-11-17T06:03:19.898Z,7.80
2017-11-17T06:05:47.512Z,7.80
2017-11-17T06:08:15.220Z,7.70
2017-11-17T06:10:42.987Z,7.70
2017-11-17T06:13:10.823Z,7.80
2017-11-17T06:15:39.455Z,7.80
2017-11-17T06:18:07.616Z,7.80
2017-11-17T06:20:35.115Z,7.80
2017-11-17T06:23:02.612Z,7.80
2017-11-17T06:25:30.914Z,7.80
2017-11-17T06:27:59.360Z,7.80
2017-11-17T06:30:27.671Z,7.80
2017-11-17T06:32:55.207Z,7.80
2017-11-17T06:35:23.455Z,7.80
2017-11-17T06:37:51.233Z,7.80
2017-11-17T06:40:19.521Z,7.70
2017-11-17T06:42:47.170Z,7.70
2017-11-17T06:45:14.771Z,7.70
2017-11-17T06:47:42.401Z,7.60
2017-11-17T06:50:10.813Z,7.60
2017-11-17T06:52:38.443Z,7.50
2017-11-17T06:55:05.938Z,7.50
2017-11-17T06:57:33.427Z,7.50
2017-11-17T07:00:02.050Z,7.50
2017-11-17T07:02:29.545Z,7.50
2017-11-17T07:04:57.043Z,7.50
2017-11-17T07:07:24.649Z,7.50
2017-11-17T07:09:52.210Z,7.40
2017-11-17T07:12:19.739Z,7.40
2017-11-17T07:14:47.444Z,7.40
2017-11-17T07:17:14.944Z,7.30
2017-11-17T07:19:42.431Z,7.20
2017-11-17T07:22:10.009Z,7.30
2017-11-17T07:24:37.575Z,7.30
2017-11-17T07:27:05.127Z,7.30
2017-11-17T07:29:32.604Z,7.30
2017-11-17T07:32:00.170Z,7.30
2017-11-17T07:34:27.701Z,7.40
2017-11-17T07:36:55.243Z,7.40
2017-11-17T07:39:23.530Z,7.40
2017-11-17T07:41:51.036Z,7.40
2017-11-17T07:44:18.577Z,7.40
2017-11-17T07:46:46.192Z,7.40
2017-11-17T07:49:14.448Z,7.50
2017-11-17T07:51:42.775Z,7.50
2017-11-17T07:54:10.257Z,7.50
2017-11-17T07:56:37.863Z,7.60
2017-11-17T07:59:05.530Z,7.60
2017-11-17T08:01:33.030Z,7.70
2017-11-17T08:04:00.679Z,7.70
2017-11-17T08:06:28.146Z,7.70
2017-11-17T08:08:55.695Z,7.70
2017-11-17T08:11:23.191Z,7.70
2017-11-17T08:13:50.714Z,7.70
2017-11-17T08:16:18.235Z,7.70
2017-11-17T08:18:48.460Z,7.80
2017-11-17T08:21:16.846Z,7.90
2017-11-17T08:23:44.353Z,7.90
2017-11-17T08:26:11.885Z,8.00
2017-11-17T08:28:39.596Z,7.90
2017-11-17T08:31:07.574Z,7.90
2017-11-17T08:33:35.086Z,8.00
2017-11-17T08:36:02.607Z,8.00
2017-11-17T08:38:30.996Z,8.00
2017-11-17T08:40:58.586Z,8.00
2017-11-17T08:43:26.143Z,8.10
2017-11-17T08:45:53.773Z,8.10
2017-11-17T08:48:21.273Z,8.20
2017-11-17T08:50:48.869Z,8.10
2017-11-17T08:53:16.601Z,8.20
2017-11-17T08:55:44.151Z,8.20
2017-11-17T08:58:11.633Z,8.20
2017-11-17T09:00:39.132Z,8.30
2017-11-17T09:03:07.329Z,8.30
2017-11-17T09:05:34.886Z,8.40
2017-11-17T09:08:03.165Z,8.50
2017-11-17T09:10:30.715Z,8.40
2017-11-17T09:12:58.359Z,8.50
2017-11-17T09:15:26.869Z,8.50
2017-11-17T09:17:54.428Z,8.50
2017-11-17T09:20:21.987Z,8.50
2017-11-17T09:22:49.762Z,8.60
2017-11-17T09:25:17.255Z,8.60
2017-11-17T09:27:44.974Z,8.70
2017-11-17T09:30:12.488Z,8.70
2017-11-17T09:32:40.117Z,8.70
2017-11-17T09:35:07.617Z,8.70
2017-11-17T09:37:35.180Z,8.60
2017-11-17T09:40:02.757Z,8.60
2017-11-17T09:42:31.153Z,8.70
2017-11-17T09:44:58.655Z,8.60
2017-11-17T09:47:26.197Z,8.70
2017-11-17T09:49:53.679Z,8.80
2017-11-17T09:52:21.282Z,8.80
2017-11-17T09:54:48.759Z,8.90
2017-11-17T09:57:16.273Z,9.00
2017-11-17T09:59:43.773Z,9.00
2017-11-17T10:02:11.280Z,9.00
2017-11-17T10:04:38.762Z,9.00
2017-11-17T10:07:06.474Z,9.10
2017-11-17T10:09:33.986Z,9.10
2017-11-17T10:12:02.268Z,9.20
2017-11-17T10:14:30.530Z,9.40
2017-11-17T10:16:57.997Z,9.30
2017-11-17T10:19:26.309Z,9.60
2017-11-17T10:21:54.537Z,9.60
2017-11-17T10:24:22.063Z,9.60
2017-11-17T10:26:49.678Z,9.50
2017-11-17T10:29:17.941Z,9.50
2017-11-17T10:31:46.338Z,9.70
2017-11-17T10:34:13.877Z,9.70
2017-11-17T10:36:41.443Z,9.80
2017-11-17T10:39:09.067Z,9.90
2017-11-17T10:41:36.569Z,9.80
2017-11-17T10:44:04.839Z,10.00
2017-11-17T10:46:33.227Z,10.10
2017-11-17T10:49:00.898Z,10.10
2017-11-17T10:51:28.381Z,10.20
2017-11-17T10:53:55.861Z,10.30
2017-11-17T10:56:25.161Z,10.40
2017-11-17T10:58:52.645Z,10.50
2017-11-17T11:01:20.463Z,10.50
2017-11-17T11:06:21.808Z,10.10
2017-11-17T11:08:49.305Z,9.80
2017-11-17T11:11:22.438Z,9.60
2017-11-17T11:13:50.817Z,9.50
2017-11-17T11:16:19.090Z,9.50
2017-11-17T11:18:46.803Z,9.50
2017-11-17T11:21:14.340Z,9.60
2017-11-17T11:23:41.964Z,9.60
2017-11-17T11:26:09.559Z,9.50
2017-11-17T11:28:37.834Z,9.50
2017-11-17T11:31:05.329Z,9.40
2017-11-17T11:33:32.874Z,9.50
2017-11-17T11:36:00.419Z,9.50
2017-11-17T11:38:27.968Z,9.60
2017-11-17T11:40:55.671Z,9.50
2017-11-17T11:43:23.319Z,9.50
2017-11-17T11:45:50.818Z,9.50
2017-11-17T11:48:18.556Z,9.60
2017-11-17T11:50:46.108Z,9.70
2017-11-17T11:53:13.735Z,9.70
2017-11-17T11:55:42.011Z,9.60
2017-11-17T11:58:10.327Z,9.60
2017-11-17T12:00:38.749Z,9.70
2017-11-17T12:03:06.286Z,9.70
2017-11-17T12:05:33.900Z,9.70
2017-11-17T12:08:02.269Z,9.80
2017-11-17T12:10:29.801Z,9.70
2017-11-17T12:12:57.325Z,9.80
2017-11-17T12:15:24.805Z,9.80
2017-11-17T12:17:52.305Z,9.80
2017-11-17T12:20:20.590Z,10.00
2017-11-17T12:22:48.262Z,10.00
2017-11-17T12:25:15.874Z,10.00
2017-11-17T12:27:43.381Z,10.00
2017-11-17T12:30:10.889Z,10.00
2017-11-17T12:32:38.452Z,10.20
2017-11-17T12:35:05.963Z,10.40
2017-11-17T12:37:33.710Z,10.70
2017-11-17T12:40:02.044Z,10.50
2017-11-17T12:42:29.532Z,10.50
2017-11-17T12:44:57.044Z,10.30
2017-11-17T12:47:24.569Z,10.20
2017-11-17T12:49:52.066Z,10.10
2017-11-17T12:52:19.817Z,10.10
2017-11-17T12:54:47.328Z,10.00
2017-11-17T12:57:14.909Z,10.00
2017-11-17T12:59:43.286Z,10.00
2017-11-17T13:02:12.205Z,9.90
2017-11-17T13:04:38.415Z,10.00
2017-11-17T13:07:05.974Z,10.00
2017-11-17T13:09:34.289Z,9.80
2017-11-17T13:12:01.905Z,9.90
2017-11-17T13:14:30.178Z,9.80
2017-11-17T13:16:58.457Z,9.70
2017-11-17T13:19:26.846Z,9.70
2017-11-17T13:21:54.372Z,9.70
2017-11-17T13:24:21.941Z,9.60
2017-11-17T13:26:49.449Z,9.60
2017-11-17T13:29:16.948Z,9.50
2017-11-17T13:31:44.481Z,9.50
2017-11-17T13:34:12.051Z,9.40
2017-11-17T13:36:39.665Z,9.30
2017-11-17T13:39:07.182Z,9.30
2017-11-17T13:41:34.682Z,9.30
2017-11-17T13:44:02.170Z,9.30
2017-11-17T13:46:29.701Z,9.20
2017-11-17T13:48:57.187Z,9.20
2017-11-17T13:51:24.808Z,9.10
2017-11-17T13:53:53.078Z,9.10
2017-11-17T13:56:21.352Z,9.00
2017-11-17T13:58:49.771Z,9.00
2017-11-17T14:01:17.258Z,9.00
2017-11-17T14:03:44.782Z,9.10
2017-11-17T14:06:12.357Z,9.00
2017-11-17T14:08:39.868Z,9.00
2017-11-17T14:11:07.758Z,9.00
2017-11-17T14:13:35.333Z,9.00
2017-11-17T14:16:02.886Z,9.00
2017-11-17T14:18:30.424Z,9.00
2017-11-17T14:20:58.814Z,9.00
2017-11-17T14:23:26.398Z,9.00
2017-11-17T14:25:53.882Z,9.20
2017-11-17T14:28:21.716Z,9.20
2017-11-17T14:30:49.255Z,9.30
2017-11-17T14:33:16.818Z,9.30
2017-11-17T14:35:44.347Z,9.30
2017-11-17T14:38:12.094Z,9.20
2017-11-17T14:40:39.701Z,9.10
2017-11-17T14:43:07.277Z,9.00
2017-11-17T14:45:34.817Z,8.90
2017-11-17T14:48:03.205Z,8.80
2017-11-17T14:50:30.707Z,8.80
2017-11-17T14:52:58.202Z,8.70
2017-11-17T14:55:26.683Z,8.60
2017-11-17T14:57:54.940Z,8.50
2017-11-17T15:00:22.446Z,8.50
2017-11-17T15:02:49.994Z,8.50
2017-11-17T15:05:17.693Z,8.50
2017-11-17T15:07:45.189Z,8.40
2017-11-17T15:10:12.661Z,8.40
2017-11-17T15:12:40.174Z,8.30
2017-11-17T15:15:07.787Z,8.30
2017-11-17T15:17:35.306Z,8.20
2017-11-17T15:20:02.948Z,8.20
2017-11-17T15:22:30.445Z,8.10
2017-11-17T15:24:57.921Z,8.10
2017-11-17T15:27:25.623Z,8.00
2017-11-17T15:29:53.121Z,8.00
2017-11-17T15:32:20.637Z,7.90
2017-11-17T15:34:48.141Z,7.90
2017-11-17T15:37:15.658Z,7.80
2017-11-17T15:39:43.373Z,7.80
2017-11-17T15:42:11.801Z,7.70
2017-11-17T15:44:39.313Z,7.70
2017-11-17T15:47:07.743Z,7.70
2017-11-17T15:49:35.254Z,7.70
2017-11-17T15:52:02.817Z,7.70
2017-11-17T15:54:30.490Z,7.70
2017-11-17T15:56:57.988Z,7.60
2017-11-17T15:59:25.498Z,7.60
2017-11-17T16:01:53.769Z,7.60
2017-11-17T16:04:22.090Z,7.60
2017-11-17T16:06:49.569Z,7.50
2017-11-17T16:09:17.309Z,7.60
2017-11-17T16:11:45.125Z,7.60
2017-11-17T16:14:12.608Z,7.60
2017-11-17T16:16:40.266Z,7.50
2017-11-17T16:19:07.752Z,7.50
2017-11-17T16:21:35.259Z,7.50
2017-11-17T16:24:02.791Z,7.50
2017-11-17T16:26:30.282Z,7.50
2017-11-17T16:28:57.814Z,7.40
2017-11-17T16:31:25.306Z,7.40
2017-11-17T16:33:52.873Z,7.40
2017-11-17T16:36:20.483Z,7.30
2017-11-17T16:38:48.013Z,7.40
2017-11-17T16:41:15.654Z,7.30
2017-11-17T16:43:43.395Z,7.30
2017-11-17T16:46:10.895Z,7.30
2017-11-17T16:48:39.147Z,7.20
2017-11-17T16:51:06.764Z,7.30
2017-11-17T16:53:34.259Z,7.30
2017-11-17T16:56:01.876Z,7.20
2017-11-17T16:58:29.518Z,7.20
2017-11-17T17:00:57.072Z,7.20
2017-11-17T17:03:25.377Z,7.10
2017-11-17T17:05:53.012Z,7.10
2017-11-17T17:08:20.569Z,7.10
2017-11-17T17:10:48.825Z,7.20
2017-11-17T17:13:16.306Z,7.10
2017-11-17T17:15:43.837Z,7.20
2017-11-17T17:18:11.632Z,7.20
2017-11-17T17:20:39.136Z,7.10
2017-11-17T17:23:06.762Z,7.00
2017-11-17T17:25:34.255Z,7.00
2017-11-17T17:28:01.794Z,7.00
2017-11-17T17:30:29.414Z,7.00
2017-11-17T17:32:56.956Z,7.00
2017-11-17T17:35:24.588Z,6.90
2017-11-17T17:37:52.074Z,6.80
2017-11-17T17:40:20.356Z,6.60
2017-11-17T17:42:47.874Z,6.60
2017-11-17T17:45:15.391Z,6.50
2017-11-17T17:47:43.102Z,6.60
2017-11-17T17:50:10.635Z,6.50
2017-11-17T17:52:38.273Z,6.60
2017-11-17T17:55:06.700Z,6.60
2017-11-17T17:57:34.235Z,6.60
2017-11-17T18:00:02.480Z,6.60
2017-11-17T18:02:29.982Z,6.60
2017-11-17T18:04:57.504Z,6.60
2017-11-17T18:07:24.989Z,6.60
2017-11-17T18:09:52.477Z,6.60
2017-11-17T18:12:20.001Z,6.50
2017-11-17T18:14:47.493Z,6.50
2017-11-17T18:17:15.161Z,6.40
2017-11-17T18:19:42.662Z,6.40
2017-11-17T18:22:10.264Z,6.50
2017-11-17T18:24:37.813Z,6.50
2017-11-17T18:27:05.406Z,6.50
2017-11-17T18:29:33.094Z,6.50
2017-11-17T18:32:00.628Z,6.50
2017-11-17T18:34:28.109Z,6.40
2017-11-17T18:36:55.630Z,6.40
2017-11-17T18:39:23.283Z,6.40
2017-11-17T18:41:50.768Z,6.50
2017-11-17T18:44:18.248Z,6.50
2017-11-17T18:46:45.805Z,6.40
2017-11-17T18:49:13.265Z,6.40
2017-11-17T18:51:40.793Z,6.40
2017-11-17T18:54:08.349Z,6.40
2017-11-17T18:56:35.901Z,6.30
2017-11-17T18:59:03.438Z,6.20
2017-11-17T19:01:31.723Z,6.20
2017-11-17T19:03:59.956Z,6.20
2017-11-17T19:06:27.463Z,6.20
2017-11-17T19:08:54.957Z,6.30
2017-11-17T19:11:22.460Z,6.30
2017-11-17T19:13:50.997Z,6.20
2017-11-17T19:16:18.546Z,6.20
2017-11-17T19:18:46.893Z,6.20
2017-11-17T19:21:14.400Z,6.10
2017-11-17T19:23:41.876Z,6.20
2017-11-17T19:26:09.497Z,6.10
2017-11-17T19:28:37.154Z,6.10
2017-11-17T19:31:04.668Z,6.00
2017-11-17T19:33:32.158Z,6.00
2017-11-17T19:35:59.674Z,6.00
2017-11-17T19:38:27.218Z,6.00
2017-11-17T19:40:54.821Z,6.00
2017-11-17T19:43:22.295Z,5.90
2017-11-17T19:45:49.949Z,6.00
2017-11-17T19:48:17.459Z,5.90
2017-11-17T19:50:45.066Z,5.90
2017-11-17T19:53:12.739Z,5.90
2017-11-17T19:55:40.246Z,5.90
2017-11-17T19:58:07.725Z,5.90
2017-11-17T20:00:35.216Z,5.90
2017-11-17T20:03:02.954Z,5.80
2017-11-17T20:05:30.617Z,5.70
2017-11-17T20:07:58.294Z,5.70
2017-11-17T20:10:25.947Z,5.70
2017-11-17T20:12:54.338Z,5.60
2017-11-17T20:15:21.825Z,5.60
2017-11-17T20:17:49.339Z,5.60
2017-11-17T20:20:17.713Z,5.60
2017-11-17T20:22:45.197Z,5.50
2017-11-17T20:25:12.749Z,5.50
2017-11-17T20:27:40.256Z,5.50
2017-11-17T20:30:07.752Z,5.50
2017-11-17T20:32:36.024Z,5.50
2017-11-17T20:35:03.521Z,5.40
2017-11-17T20:37:31.192Z,5.50
2017-11-17T20:39:58.702Z,5.40
2017-11-17T20:42:26.219Z,5.40
2017-11-17T20:44:53.718Z,5.40
2017-11-17T20:47:21.427Z,5.40
2017-11-17T20:49:49.571Z,5.40
2017-11-17T20:52:17.238Z,5.40
2017-11-17T20:54:44.885Z,5.40
2017-11-17T20:57:14.182Z,5.30
2017-11-17T20:59:41.746Z,5.20
2017-11-17T21:02:09.261Z,5.30
2017-11-17T21:04:36.788Z,5.30
2017-11-17T21:07:05.029Z,5.30
2017-11-17T21:09:33.306Z,5.30
2017-11-17T21:12:00.827Z,5.20
2017-11-17T21:14:28.346Z,5.20
2017-11-17T21:16:56.012Z,5.30
2017-11-17T21:19:24.274Z,5.20
2017-11-17T21:21:52.523Z,5.20
2017-11-17T21:24:20.010Z,5.20
2017-11-17T21:26:48.284Z,5.20
2017-11-17T21:29:16.016Z,5.10
2017-11-17T21:31:43.538Z,5.20
2017-11-17T21:34:11.031Z,5.20
2017-11-17T21:36:38.502Z,5.20
2017-11-17T21:39:06.215Z,5.20
2017-11-17T21:41:33.734Z,5.20
2017-11-17T21:44:01.326Z,5.10
2017-11-17T21:46:29.581Z,5.00
2017-11-17T21:48:57.066Z,5.00
2017-11-17T21:51:24.604Z,5.00
2017-11-17T21:53:53.002Z,5.00
2017-11-17T21:56:20.687Z,5.00
2017-11-17T21:58:48.319Z,5.00
2017-11-17T22:01:16.697Z,4.90
2017-11-17T22:03:44.947Z,4.90
2017-11-17T22:06:12.446Z,4.90
2017-11-17T22:08:39.946Z,4.80
2017-11-17T22:11:07.539Z,4.70
2017-11-17T22:13:35.801Z,4.60
2017-11-17T22:16:03.359Z,4.60
2017-11-17T22:18:30.920Z,4.60
2017-11-17T22:20:58.542Z,4.50
2017-11-17T22:23:26.060Z,4.50
2017-11-17T22:25:54.684Z,4.50
2017-11-17T22:28:27.123Z,4.50
2017-11-17T22:30:55.377Z,4.40
2017-11-17T22:33:22.913Z,4.40
2017-11-17T22:35:50.390Z,4.40
2017-11-17T22:38:17.970Z,4.40
2017-11-17T22:40:45.498Z,4.40
2017-11-17T22:43:13.009Z,4.40
2017-11-17T22:45:40.501Z,4.40
2017-11-17T22:48:08.010Z,4.40
2017-11-17T22:50:35.920Z,4.40
2017-11-17T22:53:03.433Z,4.40
2017-11-17T22:55:31.834Z,4.40
2017-11-17T22:57:59.335Z,4.40
2017-11-17T23:00:26.890Z,4.40
2017-11-17T23:02:54.440Z,4.30
2017-11-17T23:05:21.972Z,4.20
2017-11-17T23:07:49.505Z,4.20
2017-11-17T23:10:17.085Z,4.20
2017-11-17T23:12:44.842Z,4.10
2017-11-17T23:15:12.337Z,4.00
2017-11-17T23:17:39.817Z,4.00
2017-11-17T23:20:07.429Z,4.00
2017-11-17T23:22:34.919Z,4.00
2017-11-17T23:25:02.440Z,4.00
2017-11-17T23:27:30.697Z,3.90
2017-11-17T23:29:58.275Z,3.90
2017-11-17T23:32:25.927Z,3.90
2017-11-17T23:34:54.192Z,3.90
2017-11-17T23:37:21.679Z,3.80
2017-11-17T23:39:50.087Z,3.80
2017-11-17T23:42:17.717Z,3.80
2017-11-17T23:44:45.217Z,3.80
2017-11-17T23:47:12.720Z,3.90
2017-11-17T23:49:40.969Z,3.80
2017-11-17T23:52:08.462Z,3.80
2017-11-17T23:54:36.711Z,4.00
2017-11-17T23:57:04.305Z,3.90
2017-11-17T23:59:32.554Z,4.10
